CheckWX is a tool to help pilots better visualize weather data.  It is not intended as a substitute for an official pre-flight weather briefing.

06:58:19 UTC

PLCH TAF
Cassidy International Airport
Banana, Kiribati
TAF PLCH 210510Z 2106/2206 13010KT 9999 SCT020

Sep-21@
06:00 UTC

Sep-21 @ 06:00 UTC

Sep-22@
06:00 UTC

Sep-22 @ 06:00 UTC

TAF PLCH 210510Z 2106/2206 13010KT 9999 SCT020
Wind
  • 130° at 10 KTS
Cloud Levels
  • Scattered at 2,000' AGL